Ryoka Maru No.103 — JG5593 — position and weather

sailwx.info

Track history (hours):
 
Tides and Currents Weather Stations Pressure Air Temp Water Temp Dewpoint Dewpoint Depression Visibility Wind Speed Wind Dir Waves Ship Positions

Ryoka Maru No.103

Last reported at 2018-Jun-22 15:41 UTC. Time now 2018-Jun-24 20:27 UTC.
Position N 33°46' E 135°04'.

Length 69 m; draft 4.5 m.

Type: Tanker. MMSI: 431401796.

Date/timePositionNaut miles runAvg speedWind from/ knotsBaromVisibWave heightAir tempDewpointWater temp
2018-Jun-22 15:41N 33°46' E 135°04'313.2
2018-Jun-22 15:29N 33°48' E 135°02'712.8
2018-Jun-22 14:57N 33°54' E 134°58'612.7
2018-Jun-22 14:30N 33°59' E 134°54'612.8
2018-Jun-22 14:00N 34°03' E 134°49'1013.1
2018-Jun-22 13:13N 34°11' E 134°41'314.8
2018-Jun-22 13:00N 34°14' E 134°39'611.5
2018-Jun-22 12:30N 34°17' E 134°33'612.7
2018-Jun-22 12:00N 34°20' E 134°26'712.9
2018-Jun-22 11:29N 34°23' E 134°19'613.0
2018-Jun-22 11:00N 34°25' E 134°12'912.8
2018-Jun-22 10:20N 34°25' E 134°01'18 1.6
2018-Jun-21 23:09N 34°25' E 134°23'213.1
2018-Jun-21 23:00N 34°26' E 134°25'713.3
2018-Jun-21 22:30N 34°28' E 134°33'713.1
2018-Jun-21 22:00N 34°31' E 134°40'713.4
2018-Jun-21 21:30N 34°34' E 134°48'713.4
2018-Jun-21 20:58N 34°36' E 134°56'612.7
2018-Jun-21 20:30N 34°36' E 135°03'611.3
2018-Jun-21 20:00N 34°31' E 135°04'713.3
2018-Jun-21 19:31N 34°24' E 135°02'714.4
2018-Jun-21 19:00N 34°17' E 134°59'713.6
2018-Jun-21 18:30N 34°11' E 135°01'713.6
2018-Jun-21 18:00N 34°04' E 135°01'713.4
2018-Jun-21 17:27N 33°57' E 135°01'613.2
2018-Jun-21 17:00N 33°51' E 135°02'713.2
2018-Jun-21 16:27N 33°45' E 135°08'  
2018-Jun-16 10:07N 33°50' E 135°02'112.1
2018-Jun-16 10:00N 33°51' E 135°01'612.2
2018-Jun-16 09:30N 33°56' E 134°56'912.5
2018-Jun-16 08:48N 34°03' E 134°49'412.8
2018-Jun-16 08:27N 34°06' E 134°46'713.1
2018-Jun-16 07:57N 34°11' E 134°41'1013.1
2018-Jun-16 07:10N 34°18' E 134°32'212.9
2018-Jun-16 06:59N 34°19' E 134°29'13 1.4
2018-Jun-15 21:26N 34°24' E 134°14'913.1
2018-Jun-15 20:43N 34°21' E 134°25'313.3
2018-Jun-15 20:30N 34°20' E 134°28'1112.2
2018-Jun-15 19:36N 34°14' E 134°39'111.4
2018-Jun-15 19:30N 34°13' E 134°40'710.6
2018-Jun-15 18:52N 34°07' E 134°44'411.1
2018-Jun-15 18:30N 34°04' E 134°47'2 3.7
2018-Jun-15 18:00N 34°03' E 134°48'611.2
2018-Jun-15 17:30N 33°58' E 134°53'611.3
2018-Jun-15 17:00N 33°54' E 134°57'611.3
2018-Jun-15 16:29N 33°49' E 135°01'4 8.9
2018-Jun-15 15:59N 33°45' E 135°02'  
Track history (hours):
 
Tides and Currents Weather Stations Pressure Air Temp Water Temp Dewpoint Dewpoint Depression Visibility Wind Speed Wind Dir Waves Ship Positions

Ryoka Maru No.103

Last reported at 2018-Jun-22 15:41 UTC. Time now 2018-Jun-24 20:27 UTC.
Position N 33°46' E 135°04'.

Length 69 m; draft 4.5 m.

Type: Tanker. MMSI: 431401796.

Date/timePositionNaut miles runAvg speedWind from/ knotsBaromVisibWave heightAir tempDewpointWater temp
2018-Jun-22 15:41N 33°46' E 135°04'313.2
2018-Jun-22 15:29N 33°48' E 135°02'712.8
2018-Jun-22 14:57N 33°54' E 134°58'612.7
2018-Jun-22 14:30N 33°59' E 134°54'612.8
2018-Jun-22 14:00N 34°03' E 134°49'1013.1
2018-Jun-22 13:13N 34°11' E 134°41'314.8
2018-Jun-22 13:00N 34°14' E 134°39'611.5
2018-Jun-22 12:30N 34°17' E 134°33'612.7
2018-Jun-22 12:00N 34°20' E 134°26'712.9
2018-Jun-22 11:29N 34°23' E 134°19'613.0
2018-Jun-22 11:00N 34°25' E 134°12'912.8
2018-Jun-22 10:20N 34°25' E 134°01'18 1.6
2018-Jun-21 23:09N 34°25' E 134°23'213.1
2018-Jun-21 23:00N 34°26' E 134°25'713.3
2018-Jun-21 22:30N 34°28' E 134°33'713.1
2018-Jun-21 22:00N 34°31' E 134°40'713.4
2018-Jun-21 21:30N 34°34' E 134°48'713.4
2018-Jun-21 20:58N 34°36' E 134°56'612.7
2018-Jun-21 20:30N 34°36' E 135°03'611.3
2018-Jun-21 20:00N 34°31' E 135°04'713.3
2018-Jun-21 19:31N 34°24' E 135°02'714.4
2018-Jun-21 19:00N 34°17' E 134°59'713.6
2018-Jun-21 18:30N 34°11' E 135°01'713.6
2018-Jun-21 18:00N 34°04' E 135°01'713.4
2018-Jun-21 17:27N 33°57' E 135°01'613.2
2018-Jun-21 17:00N 33°51' E 135°02'713.2
2018-Jun-21 16:27N 33°45' E 135°08'  
2018-Jun-16 10:07N 33°50' E 135°02'112.1
2018-Jun-16 10:00N 33°51' E 135°01'612.2
2018-Jun-16 09:30N 33°56' E 134°56'912.5
2018-Jun-16 08:48N 34°03' E 134°49'412.8
2018-Jun-16 08:27N 34°06' E 134°46'713.1
2018-Jun-16 07:57N 34°11' E 134°41'1013.1
2018-Jun-16 07:10N 34°18' E 134°32'212.9
2018-Jun-16 06:59N 34°19' E 134°29'13 1.4
2018-Jun-15 21:26N 34°24' E 134°14'913.1
2018-Jun-15 20:43N 34°21' E 134°25'313.3
2018-Jun-15 20:30N 34°20' E 134°28'1112.2
2018-Jun-15 19:36N 34°14' E 134°39'111.4
2018-Jun-15 19:30N 34°13' E 134°40'710.6
2018-Jun-15 18:52N 34°07' E 134°44'411.1
2018-Jun-15 18:30N 34°04' E 134°47'2 3.7
2018-Jun-15 18:00N 34°03' E 134°48'611.2
2018-Jun-15 17:30N 33°58' E 134°53'611.3
2018-Jun-15 17:00N 33°54' E 134°57'611.3
2018-Jun-15 16:29N 33°49' E 135°01'4 8.9
2018-Jun-15 15:59N 33°45' E 135°02'  

Dump ship's entire track history